This is the latest recevied weather packets stored in our database for station/object N5ZP. If no packets are shown the sender has not sent any weather packets the latest 10 day(s).
| Time | Temp. | Humidity | Pressure | Rain* | Wind** | Luminosity | Snow |
|---|---|---|---|---|---|---|---|
| 1777870559 | 17.22° C | 63% | 1012.7 hPa | 0 mm | - | 0 W/m² | - |
| 1777870254 | 17.22° C | 63% | 1012.6 hPa | 0 mm | - | 0 W/m² | - |
| 1777869953 | 17.22° C | 62% | 1012.8 hPa | 0 mm | - | 0 W/m² | - |
| 1777869649 | 17.22° C | 62% | 1012.7 hPa | 0 mm | - | 0 W/m² | - |
| 1777869346 | 17.78° C | 62% | 1012.5 hPa | 0 mm | - | 0 W/m² | - |
| 1777869043 | 17.78° C | 61% | 1012.7 hPa | 0 mm | - | 0 W/m² | - |
| 1777868740 | 17.78° C | 60% | 1012.7 hPa | 0 mm | - | 0 W/m² | - |
| 1777868437 | 17.78° C | 60% | 1012.8 hPa | 0 mm | - | 0 W/m² | - |
| 1777868133 | 18.33° C | 59% | 1012.9 hPa | 0 mm | - | 0 W/m² | - |
| 1777867829 | 18.33° C | 59% | 1013 hPa | 0 mm | - | 0 W/m² | - |
| 1777867527 | 18.33° C | 58% | 1013 hPa | 0 mm | - | 0 W/m² | - |
| 1777867224 | 18.33° C | 58% | 1013 hPa | 0 mm | - | 0 W/m² | - |
| 1777866921 | 18.33° C | 57% | 1013.2 hPa | 0 mm | - | 0 W/m² | - |
| 1777866617 | 18.33° C | 57% | 1012.9 hPa | 0 mm | - | 0 W/m² | - |
| 1777865103 | 18.89° C | 56% | 1012.7 hPa | 0 mm | - | 0 W/m² | - |
| 1777864800 | 18.89° C | 56% | 1012.6 hPa | 0 mm | - | 0 W/m² | - |
| 1777847836 | 28.33° C | 32% | 1012.8 hPa | 0 mm | - | 300 W/m² | - |
| 1777846626 | 27.78° C | 31% | 1013 hPa | 0 mm | - | 312 W/m² | - |
| 1777846019 | 28.33° C | 33% | 1012.9 hPa | 0 mm | - | 256 W/m² | - |
| 1777845716 | 27.78° C | 33% | 1013 hPa | 0 mm | - | 340 W/m² | - |
| 1777845417 | 27.78° C | 31% | 1013 hPa | 0 mm | - | 368 W/m² | - |
| 1777845109 | 28.33° C | 32% | 1013.2 hPa | 0 mm | - | 379 W/m² | - |
| 1777844197 | 28.89° C | 31% | 1013.5 hPa | 0 mm | - | 422 W/m² | - |
| 1777843591 | 28.33° C | 34% | 1013.6 hPa | 0 mm | - | 464 W/m² | - |
| 1777842986 | 28.89° C | 32% | 1013.5 hPa | 0 mm | - | 494 W/m² | - |
* Rain latest hour (hover to see other rain measurements)
** Current wind speed in m/s (hover to see current wind gust speed)